createdAt,value
2023-05-19T00:00:15.876Z,102108.16
2023-05-19T00:01:08.922Z,102108.97
2023-05-19T00:02:00.744Z,102113.16
2023-05-19T00:02:52.604Z,102104.50
2023-05-19T00:03:57.407Z,102106.84
2023-05-19T00:04:49.677Z,102108.44
2023-05-19T00:05:46.373Z,102107.34
2023-05-19T00:06:38.830Z,102107.53
2023-05-19T00:07:32.422Z,102104.78
2023-05-19T00:08:24.885Z,102108.34
2023-05-19T00:09:16.971Z,102099.59
2023-05-19T00:10:09.221Z,102105.41
2023-05-19T00:11:01.814Z,102102.63
2023-05-19T00:11:53.626Z,102106.91
2023-05-19T00:12:45.394Z,102105.13
2023-05-19T00:13:37.792Z,102104.25
2023-05-19T00:14:29.579Z,102102.28
2023-05-19T00:15:21.605Z,102101.19
2023-05-19T00:16:13.660Z,102102.34
2023-05-19T00:17:06.044Z,102099.59
2023-05-19T00:17:58.039Z,102100.56
2023-05-19T00:18:49.857Z,102103.34
2023-05-19T00:19:41.514Z,102096.31
2023-05-19T00:20:34.487Z,102095.41
2023-05-19T00:21:27.274Z,102103.16
2023-05-19T00:22:18.711Z,102099.88
2023-05-19T00:23:11.224Z,102097.91
2023-05-19T00:24:05.243Z,102103.78
2023-05-19T00:24:56.774Z,102103.72
2023-05-19T00:25:48.219Z,102097.44
2023-05-19T00:26:39.880Z,102098.06
2023-05-19T00:27:31.725Z,102098.00
2023-05-19T00:28:25.788Z,102101.28
2023-05-19T00:29:18.984Z,102100.31
2023-05-19T00:30:11.441Z,102096.91
2023-05-19T00:31:05.585Z,102099.59
2023-05-19T00:31:57.783Z,102092.63
2023-05-19T00:32:49.265Z,102102.78
2023-05-19T00:33:41.851Z,102097.53
2023-05-19T00:34:34.428Z,102094.84
2023-05-19T00:35:26.095Z,102099.84
2023-05-19T00:36:17.814Z,102107.41
2023-05-19T00:37:09.284Z,102095.28
2023-05-19T00:38:03.246Z,102104.59
2023-05-19T00:38:55.034Z,102102.00
2023-05-19T00:39:46.746Z,102100.03
2023-05-19T00:40:38.386Z,102103.50
2023-05-19T00:41:29.906Z,102104.59
2023-05-19T00:42:23.561Z,102102.78
2023-05-19T00:43:15.001Z,102105.09
2023-05-19T00:44:09.500Z,102106.69
2023-05-19T00:45:01.034Z,102108.38
2023-05-19T00:45:54.982Z,102105.59
2023-05-19T00:46:46.834Z,102103.75
2023-05-19T00:47:39.353Z,102101.06
2023-05-19T00:48:33.761Z,102106.94
2023-05-19T00:49:27.533Z,102109.44
2023-05-19T00:50:19.182Z,102108.56
2023-05-19T00:51:14.605Z,102105.16
2023-05-19T00:52:07.290Z,102105.16
2023-05-19T00:53:03.378Z,102110.53
2023-05-19T00:53:56.632Z,102112.38
2023-05-19T00:54:49.378Z,102105.34
2023-05-19T00:55:41.106Z,102108.00
2023-05-19T00:56:33.493Z,102101.84
2023-05-19T00:57:26.907Z,102109.59
2023-05-19T00:58:19.043Z,102106.59
2023-05-19T00:59:10.683Z,102103.03
2023-05-19T01:00:03.756Z,102103.63
2023-05-19T01:01:03.532Z,102101.84
2023-05-19T01:01:56.099Z,102101.78
2023-05-19T01:02:48.099Z,102104.19
2023-05-19T01:03:40.857Z,102101.41
2023-05-19T01:04:34.849Z,102109.53
2023-05-19T01:05:28.992Z,102105.34
2023-05-19T01:06:20.748Z,102106.84
2023-05-19T01:07:13.558Z,102105.84
2023-05-19T01:08:05.736Z,102101.84
2023-05-19T01:08:57.395Z,102104.38
2023-05-19T01:09:49.263Z,102106.75
2023-05-19T01:10:41.009Z,102103.44
2023-05-19T01:11:32.507Z,102113.63
2023-05-19T01:12:26.005Z,102109.84
2023-05-19T01:13:17.813Z,102107.88
2023-05-19T01:14:09.362Z,102105.88
2023-05-19T01:15:01.914Z,102111.66
2023-05-19T01:16:12.965Z,102108.00
2023-05-19T01:17:15.307Z,102106.75
2023-05-19T01:18:18.649Z,102111.91
2023-05-19T01:19:22.185Z,102107.34
2023-05-19T01:20:32.034Z,102113.09
2023-05-19T01:21:37.392Z,102105.34
2023-05-19T01:22:54.893Z,102104.28
2023-05-19T01:24:02.118Z,102099.72
2023-05-19T01:25:12.894Z,102098.91
2023-05-19T01:26:39.091Z,102097.41
2023-05-19T01:28:08.508Z,102101.59
2023-05-19T01:29:34.584Z,102099.09
2023-05-19T01:30:39.134Z,102097.13
2023-05-19T01:31:31.547Z,102096.84
2023-05-19T01:32:25.473Z,102085.44
2023-05-19T01:33:19.908Z,102091.47
2023-05-19T01:34:14.222Z,102094.44
2023-05-19T01:35:09.772Z,102089.19
2023-05-19T01:36:04.328Z,102095.16
2023-05-19T01:36:55.910Z,102092.28
2023-05-19T01:37:54.607Z,102092.19
2023-05-19T01:38:53.998Z,102091.28
2023-05-19T01:39:46.420Z,102096.38
2023-05-19T01:40:41.697Z,102093.50
2023-05-19T01:41:34.846Z,102092.47
2023-05-19T01:42:29.580Z,102092.94
2023-05-19T01:43:23.913Z,102100.59
2023-05-19T01:44:16.180Z,102096.84
2023-05-19T01:45:10.613Z,102090.25
2023-05-19T01:46:03.286Z,102097.94
2023-05-19T01:46:55.556Z,102089.09
2023-05-19T01:47:52.305Z,102097.44
2023-05-19T01:48:44.904Z,102087.53
2023-05-19T01:49:36.463Z,102094.97
2023-05-19T01:50:30.241Z,102093.09
2023-05-19T01:51:22.012Z,102095.50
2023-05-19T01:52:13.762Z,102091.72
2023-05-19T01:53:05.531Z,102095.56
2023-05-19T01:53:59.442Z,102094.78
2023-05-19T01:54:53.067Z,102091.00
2023-05-19T01:55:50.482Z,102090.94
2023-05-19T01:57:11.692Z,102093.31
2023-05-19T01:58:33.721Z,102092.72
2023-05-19T01:59:38.558Z,102090.75
2023-05-19T02:00:48.338Z,102090.63
2023-05-19T02:01:48.536Z,102092.03
2023-05-19T02:03:08.129Z,102096.19
2023-05-19T02:04:42.387Z,102100.06
2023-05-19T02:05:52.357Z,102100.25
2023-05-19T02:06:56.093Z,102097.59
2023-05-19T02:08:02.390Z,102103.47
2023-05-19T02:09:04.168Z,102101.38
2023-05-19T02:10:06.695Z,102100.56
2023-05-19T02:11:04.102Z,102098.47
2023-05-19T02:12:02.988Z,102106.75
2023-05-19T02:13:00.926Z,102102.34
2023-05-19T02:13:59.503Z,102101.56
2023-05-19T02:15:13.206Z,102099.66
2023-05-19T02:16:06.252Z,102104.75
2023-05-19T02:16:59.242Z,102099.28
2023-05-19T02:17:54.554Z,102111.31
2023-05-19T02:18:47.954Z,102100.16
2023-05-19T02:19:43.558Z,102104.22
2023-05-19T02:20:35.255Z,102098.88
2023-05-19T02:21:26.831Z,102101.88
2023-05-19T02:22:20.000Z,102104.16
2023-05-19T02:23:12.197Z,102107.03
2023-05-19T02:24:04.211Z,102100.66
2023-05-19T02:24:59.920Z,102100.59
2023-05-19T02:25:51.478Z,102102.38
2023-05-19T02:26:43.812Z,102100.28
2023-05-19T02:27:36.865Z,102102.34
2023-05-19T02:28:28.679Z,102100.47
2023-05-19T02:29:20.999Z,102100.28
2023-05-19T02:30:12.829Z,102103.47
2023-05-19T02:31:08.812Z,102105.94
2023-05-19T02:32:02.047Z,102105.13
2023-05-19T02:32:54.248Z,102102.56
2023-05-19T02:33:46.366Z,102104.25
2023-05-19T02:34:38.224Z,102110.28
2023-05-19T02:35:30.067Z,102103.66
2023-05-19T02:36:21.519Z,102099.38
2023-05-19T02:37:15.792Z,102097.50
2023-05-19T02:38:07.748Z,102099.78
2023-05-19T02:39:03.002Z,102105.63
2023-05-19T02:39:55.556Z,102101.47
2023-05-19T02:40:47.065Z,102101.34
2023-05-19T02:41:39.411Z,102093.31
2023-05-19T02:42:31.333Z,102099.97
2023-05-19T02:43:22.836Z,102105.13
2023-05-19T02:44:14.547Z,102099.75
2023-05-19T02:45:06.673Z,102096.38
2023-05-19T02:46:01.170Z,102089.84
2023-05-19T02:46:54.938Z,102097.38
2023-05-19T02:47:48.465Z,102100.63
2023-05-19T02:48:39.951Z,102093.50
2023-05-19T02:49:35.761Z,102096.19
2023-05-19T02:50:27.372Z,102091.50
2023-05-19T02:51:19.087Z,102096.38
2023-05-19T02:52:13.140Z,102095.66
2023-05-19T02:53:05.110Z,102092.63
2023-05-19T02:53:56.689Z,102090.72
2023-05-19T02:54:48.159Z,102092.28
2023-05-19T02:55:39.677Z,102091.41
2023-05-19T02:56:31.180Z,102088.72
2023-05-19T02:57:24.976Z,102089.19
2023-05-19T02:58:16.734Z,102091.22
2023-05-19T02:59:08.224Z,102086.63
2023-05-19T02:59:59.844Z,102086.41
2023-05-19T03:00:51.382Z,102082.84
2023-05-19T03:01:43.205Z,102087.00
2023-05-19T03:02:35.402Z,102087.72
2023-05-19T03:03:27.274Z,102083.56
2023-05-19T03:04:20.064Z,102078.19
2023-05-19T03:05:11.621Z,102082.22
2023-05-19T03:06:03.817Z,102081.34
2023-05-19T03:06:55.712Z,102077.00
2023-05-19T03:07:47.662Z,102085.50
2023-05-19T03:08:41.557Z,102080.44
2023-05-19T03:09:33.859Z,102072.91
2023-05-19T03:10:25.698Z,102076.19
2023-05-19T03:11:17.524Z,102078.78
2023-05-19T03:12:09.109Z,102075.41
2023-05-19T03:13:00.685Z,102085.50
2023-05-19T03:13:52.185Z,102078.44
2023-05-19T03:14:43.834Z,102079.84
2023-05-19T03:15:36.490Z,102077.13
2023-05-19T03:16:28.042Z,102079.84
2023-05-19T03:17:19.825Z,102075.34
2023-05-19T03:18:14.568Z,102084.31
2023-05-19T03:19:06.163Z,102074.47
2023-05-19T03:19:57.642Z,102085.56
2023-05-19T03:20:56.429Z,102076.06
2023-05-19T03:21:48.072Z,102078.72
2023-05-19T03:22:39.545Z,102079.72
2023-05-19T03:23:30.994Z,102079.91
2023-05-19T03:24:23.004Z,102084.06
2023-05-19T03:25:14.721Z,102085.59
2023-05-19T03:26:06.764Z,102081.94
2023-05-19T03:26:58.251Z,102086.97
2023-05-19T03:27:52.356Z,102078.38
2023-05-19T03:28:43.958Z,102084.88
2023-05-19T03:29:35.485Z,102086.03
2023-05-19T03:30:27.455Z,102086.81
2023-05-19T03:31:36.299Z,102086.63
2023-05-19T03:32:31.833Z,102087.41
2023-05-19T03:33:23.946Z,102088.78
2023-05-19T03:34:16.377Z,102088.66
2023-05-19T03:35:08.695Z,102093.06
2023-05-19T03:36:00.277Z,102092.16
2023-05-19T03:36:57.090Z,102092.16
2023-05-19T03:37:48.923Z,102090.38
2023-05-19T03:38:40.701Z,102091.94
2023-05-19T03:39:34.721Z,102094.41
2023-05-19T03:40:26.236Z,102092.63
2023-05-19T03:41:25.842Z,102088.25
2023-05-19T03:42:17.576Z,102084.88
2023-05-19T03:43:09.208Z,102080.84
2023-05-19T03:44:08.080Z,102086.53
2023-05-19T03:45:01.031Z,102089.31
2023-05-19T03:45:53.452Z,102090.19
2023-05-19T03:47:07.526Z,102093.56
2023-05-19T03:48:19.134Z,102091.56
2023-05-19T03:49:31.241Z,102094.16
2023-05-19T03:50:54.523Z,102089.69
2023-05-19T03:51:51.029Z,102087.91
2023-05-19T03:52:50.517Z,102091.47
2023-05-19T03:53:52.082Z,102089.78
2023-05-19T03:54:45.049Z,102083.03
2023-05-19T03:55:37.406Z,102090.56
2023-05-19T03:56:28.919Z,102088.00
2023-05-19T03:57:22.833Z,102088.00
2023-05-19T03:58:14.584Z,102092.47
2023-05-19T03:59:07.116Z,102083.84
2023-05-19T04:00:03.130Z,102086.41
2023-05-19T04:01:03.748Z,102090.69
2023-05-19T04:01:58.507Z,102093.28
2023-05-19T04:02:51.769Z,102086.22
2023-05-19T04:03:43.423Z,102081.84
2023-05-19T04:04:35.025Z,102082.75
2023-05-19T04:05:26.587Z,102084.53
2023-05-19T04:06:19.019Z,102087.00
2023-05-19T04:07:11.660Z,102088.00
2023-05-19T04:08:03.187Z,102086.22
2023-05-19T04:08:54.844Z,102080.38
2023-05-19T04:09:46.529Z,102085.16
2023-05-19T04:10:39.324Z,102080.00
2023-05-19T04:11:30.839Z,102082.47
2023-05-19T04:12:22.779Z,102086.16
2023-05-19T04:13:14.239Z,102084.66
2023-05-19T04:14:06.300Z,102091.72
2023-05-19T04:14:57.817Z,102097.88
2023-05-19T04:15:49.922Z,102090.94
2023-05-19T04:16:42.226Z,102086.66
2023-05-19T04:17:33.878Z,102092.81
2023-05-19T04:18:26.942Z,102091.81
2023-05-19T04:19:20.580Z,102090.22
2023-05-19T04:20:12.581Z,102097.09
2023-05-19T04:21:04.346Z,102090.94
2023-05-19T04:21:58.858Z,102092.13
2023-05-19T04:22:50.364Z,102087.09
2023-05-19T04:23:41.905Z,102091.34
2023-05-19T04:24:33.781Z,102092.13
2023-05-19T04:25:25.513Z,102090.56
2023-05-19T04:26:18.039Z,102088.97
2023-05-19T04:27:12.451Z,102091.56
2023-05-19T04:28:05.049Z,102088.28
2023-05-19T04:28:57.064Z,102091.75
2023-05-19T04:29:49.532Z,102091.75
2023-05-19T04:30:42.480Z,102083.16
2023-05-19T04:31:35.867Z,102080.59
2023-05-19T04:32:31.135Z,102083.16
2023-05-19T04:33:27.154Z,102090.09
2023-05-19T04:34:19.861Z,102085.75
2023-05-19T04:35:13.604Z,102087.53
2023-05-19T04:36:08.587Z,102088.41
2023-05-19T04:37:02.858Z,102091.09
2023-05-19T04:37:55.770Z,102092.69
2023-05-19T04:38:54.975Z,102084.84
2023-05-19T04:39:48.732Z,102086.63
2023-05-19T04:40:43.072Z,102092.69
2023-05-19T04:41:35.588Z,102084.16
2023-05-19T04:42:33.141Z,102087.66
2023-05-19T04:43:28.361Z,102089.50
2023-05-19T04:44:20.264Z,102087.94
2023-05-19T04:45:14.915Z,102095.88
2023-05-19T04:46:13.435Z,102089.13
2023-05-19T04:47:09.139Z,102092.69
2023-05-19T04:48:01.845Z,102090.91
2023-05-19T04:48:55.278Z,102090.25
2023-05-19T04:49:47.169Z,102091.13
2023-05-19T04:50:41.963Z,102091.13
2023-05-19T04:51:33.905Z,102095.47
2023-05-19T04:52:27.651Z,102091.44
2023-05-19T04:53:19.249Z,102088.13
2023-05-19T04:54:10.787Z,102091.72
2023-05-19T04:55:02.399Z,102087.47
2023-05-19T04:55:54.609Z,102093.41
2023-05-19T04:56:46.200Z,102090.03
2023-05-19T04:57:38.781Z,102087.78
2023-05-19T04:58:31.503Z,102094.13
2023-05-19T04:59:23.261Z,102087.47
2023-05-19T05:00:15.928Z,102087.56
2023-05-19T05:01:25.910Z,102089.38
2023-05-19T05:02:18.845Z,102096.19
2023-05-19T05:03:10.606Z,102092.94
2023-05-19T05:04:03.410Z,102095.59
2023-05-19T05:04:56.718Z,102093.00
2023-05-19T05:05:50.077Z,102100.09
2023-05-19T05:06:42.348Z,102096.69
2023-05-19T05:07:34.964Z,102092.53
2023-05-19T05:08:27.294Z,102093.44
2023-05-19T05:09:19.866Z,102095.22
2023-05-19T05:10:11.637Z,102103.06
2023-05-19T05:11:04.775Z,102100.59
2023-05-19T05:11:56.901Z,102100.00
2023-05-19T05:12:51.923Z,102102.06
2023-05-19T05:13:44.410Z,102106.03
2023-05-19T05:14:37.641Z,102103.75
2023-05-19T05:15:29.911Z,102103.25
2023-05-19T05:16:24.601Z,102093.09
2023-05-19T05:17:16.758Z,102093.97
2023-05-19T05:18:09.172Z,102104.50
2023-05-19T05:19:01.758Z,102099.84
2023-05-19T05:19:54.042Z,102103.97
2023-05-19T05:20:46.859Z,102101.41
2023-05-19T05:21:39.014Z,102100.53
2023-05-19T05:22:30.864Z,102095.34
2023-05-19T05:23:25.248Z,102103.78
2023-05-19T05:24:17.056Z,102096.03
2023-05-19T05:25:14.473Z,102100.59
2023-05-19T05:26:18.944Z,102094.75
2023-05-19T05:27:13.634Z,102098.78
2023-05-19T05:28:05.805Z,102095.78
2023-05-19T05:28:59.578Z,102094.19
2023-05-19T05:29:51.729Z,102101.94
2023-05-19T05:30:46.408Z,102091.78
2023-05-19T05:31:39.593Z,102092.56
2023-05-19T05:32:31.939Z,102090.88
2023-05-19T05:33:25.200Z,102095.22
2023-05-19T05:34:17.225Z,102093.97
2023-05-19T05:35:09.488Z,102083.28
2023-05-19T05:36:03.863Z,102093.44
2023-05-19T05:36:55.753Z,102092.09
2023-05-19T05:37:47.475Z,102093.88
2023-05-19T05:38:39.033Z,102093.88
2023-05-19T05:39:32.827Z,102096.56
2023-05-19T05:40:25.080Z,102092.28
2023-05-19T05:41:18.107Z,102098.44
2023-05-19T05:42:12.053Z,102093.25
2023-05-19T05:43:05.026Z,102095.03
2023-05-19T05:44:01.340Z,102090.94
2023-05-19T05:44:54.113Z,102098.09
2023-05-19T05:45:46.622Z,102095.56
2023-05-19T05:46:38.517Z,102090.31
2023-05-19T05:47:30.576Z,102090.38
2023-05-19T05:48:22.682Z,102093.97
2023-05-19T05:49:14.540Z,102085.66
2023-05-19T05:50:10.828Z,102094.56
2023-05-19T05:51:02.929Z,102090.38
2023-05-19T05:52:05.672Z,102088.75
2023-05-19T05:53:06.530Z,102087.97
2023-05-19T05:54:02.266Z,102086.28
2023-05-19T05:55:01.897Z,102093.41
2023-05-19T05:55:54.638Z,102083.13
2023-05-19T05:56:53.236Z,102091.22
2023-05-19T05:57:45.104Z,102087.94
2023-05-19T05:58:39.035Z,102094.97
2023-05-19T05:59:30.793Z,102086.59
2023-05-19T06:00:22.539Z,102083.25
2023-05-19T06:01:17.746Z,102094.94
2023-05-19T06:02:09.686Z,102090.47
2023-05-19T06:03:03.179Z,102092.41
2023-05-19T06:03:55.849Z,102089.00
2023-05-19T06:04:49.047Z,102088.69
2023-05-19T06:05:40.614Z,102086.41
2023-05-19T06:06:35.965Z,102087.66
2023-05-19T06:07:27.504Z,102090.50
2023-05-19T06:08:19.099Z,102083.69
2023-05-19T06:09:10.756Z,102090.66
2023-05-19T06:10:02.888Z,102092.50
2023-05-19T06:10:55.256Z,102087.56
2023-05-19T06:11:46.828Z,102084.97
2023-05-19T06:12:43.342Z,102087.78
2023-05-19T06:13:36.789Z,102091.50
2023-05-19T06:14:31.313Z,102089.16
2023-05-19T06:15:41.607Z,102092.00
2023-05-19T06:16:52.964Z,102084.19
2023-05-19T06:17:44.797Z,102086.41
2023-05-19T06:18:40.231Z,102082.31
2023-05-19T06:19:31.846Z,102073.88
2023-05-19T06:20:23.425Z,102075.66
2023-05-19T06:21:15.927Z,102072.31
2023-05-19T06:22:07.806Z,102078.50
2023-05-19T06:23:00.143Z,102077.69
2023-05-19T06:23:52.733Z,102077.75
2023-05-19T06:24:44.761Z,102077.88
2023-05-19T06:25:38.584Z,102079.66
2023-05-19T06:26:30.604Z,102078.19
2023-05-19T06:27:22.069Z,102078.19
2023-05-19T06:28:13.573Z,102073.13
2023-05-19T06:29:05.183Z,102079.53
2023-05-19T06:29:56.915Z,102073.63
2023-05-19T06:30:52.068Z,102070.41
2023-05-19T06:31:57.153Z,102073.28
2023-05-19T06:32:49.684Z,102067.44
2023-05-19T06:33:43.564Z,102066.56
2023-05-19T06:34:35.517Z,102070.13
2023-05-19T06:35:26.999Z,102067.56
2023-05-19T06:36:18.542Z,102063.28
2023-05-19T06:37:11.161Z,102070.25
2023-05-19T06:38:03.049Z,102066.13
2023-05-19T06:38:54.723Z,102065.28
2023-05-19T06:39:46.330Z,102069.53
2023-05-19T06:40:38.418Z,102067.81
2023-05-19T06:41:30.152Z,102072.19
2023-05-19T06:42:25.162Z,102064.34
2023-05-19T06:43:25.829Z,102066.13
2023-05-19T06:44:22.610Z,102067.56
2023-05-19T06:45:15.130Z,102071.41
2023-05-19T06:46:06.894Z,102065.56
2023-05-19T06:46:58.616Z,102064.88
2023-05-19T06:47:50.428Z,102067.63
2023-05-19T06:48:42.116Z,102065.00
2023-05-19T06:49:35.680Z,102059.28
2023-05-19T06:50:27.472Z,102062.88
2023-05-19T06:51:21.712Z,102063.84
2023-05-19T06:52:17.490Z,102064.06
2023-05-19T06:53:11.174Z,102064.28
2023-05-19T06:54:03.406Z,102064.28
2023-05-19T06:54:55.053Z,102059.28
2023-05-19T06:55:57.878Z,102065.44
2023-05-19T06:56:52.332Z,102062.91
2023-05-19T06:57:43.841Z,102057.06
2023-05-19T06:58:36.699Z,102064.81
2023-05-19T06:59:30.320Z,102059.03
2023-05-19T07:00:23.840Z,102063.84
2023-05-19T07:01:19.818Z,102060.09
2023-05-19T07:02:17.973Z,102067.38
2023-05-19T07:03:10.265Z,102060.66
2023-05-19T07:04:02.946Z,102059.00
2023-05-19T07:04:58.759Z,102058.19
2023-05-19T07:05:51.078Z,102057.34
2023-05-19T07:06:42.897Z,102064.34
2023-05-19T07:07:34.523Z,102058.25
2023-05-19T07:08:27.876Z,102060.50
2023-05-19T07:09:19.376Z,102059.25
2023-05-19T07:10:12.929Z,102061.09
2023-05-19T07:11:04.817Z,102057.66
2023-05-19T07:11:58.569Z,102057.41
2023-05-19T07:12:50.063Z,102064.63
2023-05-19T07:13:43.290Z,102063.69
2023-05-19T07:14:36.461Z,102056.69
2023-05-19T07:15:28.574Z,102063.81
2023-05-19T07:16:20.210Z,102059.53
2023-05-19T07:17:11.730Z,102066.59
2023-05-19T07:18:07.567Z,102056.09
2023-05-19T07:19:00.837Z,102055.81
2023-05-19T07:19:52.400Z,102061.50
2023-05-19T07:20:44.181Z,102058.84
2023-05-19T07:21:35.832Z,102063.28
2023-05-19T07:22:27.483Z,102058.25
2023-05-19T07:23:20.261Z,102052.13
2023-05-19T07:24:12.556Z,102059.19
2023-05-19T07:25:04.601Z,102051.41
2023-05-19T07:26:00.393Z,102056.84
2023-05-19T07:26:51.974Z,102053.00
2023-05-19T07:27:43.413Z,102048.94
2023-05-19T07:28:34.966Z,102055.28
2023-05-19T07:29:26.501Z,102052.78
2023-05-19T07:30:18.242Z,102050.34
2023-05-19T07:31:09.827Z,102045.50
2023-05-19T07:32:01.351Z,102050.81
2023-05-19T07:32:53.001Z,102047.56
2023-05-19T07:33:44.614Z,102053.72
2023-05-19T07:34:36.802Z,102046.88
2023-05-19T07:35:30.217Z,102048.97
2023-05-19T07:36:21.713Z,102052.78
2023-05-19T07:37:15.317Z,102052.97
2023-05-19T07:38:07.431Z,102050.66
2023-05-19T07:38:59.020Z,102053.44
2023-05-19T07:39:50.475Z,102045.59
2023-05-19T07:40:41.982Z,102051.03
2023-05-19T07:41:34.434Z,102047.88
2023-05-19T07:42:27.882Z,102052.72
2023-05-19T07:43:19.522Z,102048.69
2023-05-19T07:44:11.103Z,102056.41
2023-05-19T07:45:03.670Z,102052.88
2023-05-19T07:45:58.699Z,102055.47
2023-05-19T07:46:50.575Z,102049.34
2023-05-19T07:47:44.717Z,102052.78
2023-05-19T07:48:36.812Z,102052.03
2023-05-19T07:49:28.357Z,102050.28
2023-05-19T07:50:20.521Z,102051.31
2023-05-19T07:51:13.342Z,102053.09
2023-05-19T07:52:08.076Z,102041.84
2023-05-19T07:52:59.714Z,102038.44
2023-05-19T07:53:53.809Z,102048.78
2023-05-19T07:54:46.063Z,102046.41
2023-05-19T07:55:37.561Z,102037.69
2023-05-19T07:56:29.582Z,102042.03
2023-05-19T07:57:21.130Z,102035.28
2023-05-19T07:58:12.574Z,102038.16
2023-05-19T07:59:04.582Z,102035.88
2023-05-19T07:59:56.716Z,102030.63
2023-05-19T08:00:50.768Z,102039.44
2023-05-19T08:01:42.348Z,102033.06
2023-05-19T08:02:34.056Z,102027.22
2023-05-19T08:03:30.612Z,102024.91
2023-05-19T08:04:25.651Z,102023.84
2023-05-19T08:05:18.355Z,102020.34
2023-05-19T08:06:11.095Z,102025.38
2023-05-19T08:07:02.649Z,102019.00
2023-05-19T08:07:54.121Z,102019.75
2023-05-19T08:08:46.281Z,102024.06
2023-05-19T08:09:37.827Z,102026.91
2023-05-19T08:10:29.435Z,102024.53
2023-05-19T08:11:21.664Z,102020.25
2023-05-19T08:12:13.499Z,102021.69
2023-05-19T08:13:05.332Z,102022.38
2023-05-19T08:13:57.030Z,102023.28
2023-05-19T08:14:50.695Z,102024.13
2023-05-19T08:15:42.774Z,102019.69
2023-05-19T08:16:34.371Z,102018.84
2023-05-19T08:17:25.941Z,102013.59
2023-05-19T08:18:17.436Z,102016.28
2023-05-19T08:19:09.285Z,102015.88
2023-05-19T08:20:00.734Z,102007.88
2023-05-19T08:20:54.786Z,102011.56
2023-05-19T08:21:46.228Z,102022.06
2023-05-19T08:22:38.132Z,102016.03
2023-05-19T08:23:29.907Z,102012.50
2023-05-19T08:24:21.373Z,102013.47
2023-05-19T08:25:13.963Z,102011.88
2023-05-19T08:26:05.761Z,102015.88
2023-05-19T08:26:57.394Z,102007.97
2023-05-19T08:27:48.894Z,102014.13
2023-05-19T08:28:40.797Z,102011.53
2023-05-19T08:29:32.353Z,102013.41
2023-05-19T08:30:24.299Z,102014.38
2023-05-19T08:31:18.286Z,102012.72
2023-05-19T08:32:12.404Z,102010.22
2023-05-19T08:33:05.065Z,102013.06
2023-05-19T08:33:56.758Z,102008.63
2023-05-19T08:34:49.633Z,102010.25
2023-05-19T08:35:41.111Z,102007.56
2023-05-19T08:36:33.899Z,102001.44
2023-05-19T08:37:25.549Z,102001.41
2023-05-19T08:38:16.978Z,102000.72
2023-05-19T08:39:08.489Z,101995.63
2023-05-19T08:39:59.897Z,101994.88
2023-05-19T08:40:51.646Z,101995.03
2023-05-19T08:41:43.332Z,101988.06
2023-05-19T08:42:35.199Z,101996.06
2023-05-19T08:43:27.073Z,101990.09
2023-05-19T08:44:19.218Z,101995.53
2023-05-19T08:45:11.350Z,101992.47
2023-05-19T08:46:03.892Z,101982.63
2023-05-19T08:46:58.514Z,101991.16
2023-05-19T08:47:51.310Z,101988.38
2023-05-19T08:48:44.652Z,101985.59
2023-05-19T08:49:44.434Z,101977.75
2023-05-19T08:50:41.187Z,101981.03
2023-05-19T08:51:58.641Z,101976.50
2023-05-19T08:53:01.570Z,101977.22
2023-05-19T08:54:00.328Z,101974.59
2023-05-19T08:55:00.899Z,101986.06
2023-05-19T08:56:11.461Z,101984.22
2023-05-19T08:57:03.324Z,101980.84
2023-05-19T08:57:56.258Z,101977.59
2023-05-19T08:58:50.799Z,101988.06
2023-05-19T08:59:43.582Z,101979.13
2023-05-19T09:00:35.736Z,101972.13
2023-05-19T09:01:31.283Z,101974.81
2023-05-19T09:02:23.837Z,101971.38
2023-05-19T09:03:23.495Z,101970.41
2023-05-19T09:04:17.392Z,101975.66
2023-05-19T09:05:10.324Z,101977.72
2023-05-19T09:06:07.214Z,101967.00
2023-05-19T09:07:05.500Z,101978.66
2023-05-19T09:07:57.094Z,101971.69
2023-05-19T09:08:48.716Z,101970.97
2023-05-19T09:09:43.421Z,101978.09
2023-05-19T09:10:34.921Z,101973.84
2023-05-19T09:11:26.714Z,101971.41
2023-05-19T09:12:18.124Z,101962.59
2023-05-19T09:13:12.320Z,101960.72
2023-05-19T09:14:05.013Z,101962.56
2023-05-19T09:14:57.949Z,101957.19
2023-05-19T09:15:52.849Z,101956.44
2023-05-19T09:16:48.143Z,101960.88
2023-05-19T09:17:39.966Z,101961.66
2023-05-19T09:18:34.089Z,101954.56
2023-05-19T09:19:29.390Z,101958.03
2023-05-19T09:20:21.013Z,101956.19
2023-05-19T09:21:13.084Z,101951.69
2023-05-19T09:22:04.787Z,101962.22
2023-05-19T09:22:57.318Z,101951.75
2023-05-19T09:23:49.577Z,101943.94
2023-05-19T09:24:42.123Z,101947.66
2023-05-19T09:25:35.250Z,101947.88
2023-05-19T09:26:40.465Z,101941.88
2023-05-19T09:27:35.594Z,101951.56
2023-05-19T09:28:33.907Z,101937.63
2023-05-19T09:29:28.324Z,101942.03
2023-05-19T09:30:20.286Z,101942.13
2023-05-19T09:31:11.830Z,101943.00
2023-05-19T09:32:06.011Z,101937.03
2023-05-19T09:33:00.860Z,101939.00
2023-05-19T09:33:53.766Z,101942.69
2023-05-19T09:34:45.277Z,101938.34
2023-05-19T09:35:37.128Z,101931.34
2023-05-19T09:36:29.843Z,101938.34
2023-05-19T09:37:24.545Z,101933.69
2023-05-19T09:38:19.345Z,101932.81
2023-05-19T09:39:17.921Z,101934.28
2023-05-19T09:40:13.909Z,101935.09
2023-05-19T09:41:07.548Z,101938.00
2023-05-19T09:41:59.146Z,101935.44
2023-05-19T09:42:50.615Z,101937.13
2023-05-19T09:43:54.607Z,101936.34
2023-05-19T09:44:47.862Z,101928.59
2023-05-19T09:45:39.587Z,101934.00
2023-05-19T09:46:31.155Z,101933.91
2023-05-19T09:47:24.806Z,101926.97
2023-05-19T09:48:16.470Z,101930.69
2023-05-19T09:49:09.557Z,101927.16
2023-05-19T09:50:01.034Z,101926.38
2023-05-19T09:50:53.991Z,101936.91
2023-05-19T09:51:46.005Z,101925.22
2023-05-19T09:52:39.002Z,101927.47
2023-05-19T09:53:32.327Z,101924.75
2023-05-19T09:54:25.616Z,101928.97
2023-05-19T09:55:18.566Z,101921.00
2023-05-19T09:56:11.036Z,101921.06
2023-05-19T09:57:07.741Z,101922.16
2023-05-19T09:58:01.198Z,101924.97
2023-05-19T09:58:52.817Z,101924.94
2023-05-19T09:59:44.784Z,101925.00
2023-05-19T10:00:38.931Z,101925.13
2023-05-19T10:01:33.664Z,101922.38
2023-05-19T10:02:26.102Z,101924.94
2023-05-19T10:03:18.788Z,101923.25
2023-05-19T10:04:11.448Z,101919.72
2023-05-19T10:05:04.268Z,101927.63
2023-05-19T10:06:01.347Z,101920.47
2023-05-19T10:06:55.222Z,101922.28
2023-05-19T10:07:50.231Z,101922.38
2023-05-19T10:08:43.752Z,101916.34
2023-05-19T10:09:37.207Z,101923.28
2023-05-19T10:10:31.133Z,101913.59
2023-05-19T10:11:23.416Z,101917.91
2023-05-19T10:12:15.524Z,101913.53
2023-05-19T10:13:07.754Z,101915.25
2023-05-19T10:13:59.803Z,101921.34
2023-05-19T10:14:54.700Z,101913.25
2023-05-19T10:15:58.108Z,101919.44
2023-05-19T10:16:52.891Z,101914.28
2023-05-19T10:17:45.603Z,101909.03